Startpagina
METAR-TAF:

METAR-TAF

Vliegvelden :

Büchel, Duitsland

breedte: 50-10N, lengte: 007-04E, hoogte: 478 m

Actueel weer

Dit bericht is 40 minuten geleden gemaakt, om 05:20 UTC
Wind 6 kt uit het noordoosten
Temperatuur -3°C
Vochtigheid 63%
Druk 1024 hPa
Zicht 10 km of meer

METAR: ETSB 070520Z AUTO 05006KT 9999 // ////// M03/M09 Q1024 ///

Tijdstip: 07:00 (06:00 UTC)


TAF: ontbreekt

Waarnemingen en weersverwachtingen van meer dan 4000 vliegvelden (METAR en TAF).

De beschikbare stations zijn de gele en rode punten op de kaart.

Ga met uw muis naar het station om de naam te zien.

Klik dan om waarnemingen en weersverwachtingen te zien.

kaart wijzigen: klik op de groene knoppen met een zwart kruis om in te zoomen, op de groene knop met een streepje om uit te zoomen of op de groene pijlen voor aangrenzende kaarten.


METAR-TAF: